sensor_id;sensor_type;location;lat;lon;timestamp;P1;durP1;ratioP1;P2;durP2;ratioP2
31238;SDS011;17871;31.584;74.450;2023-09-08T00:01:01;68.05;;;37.35;;
31238;SDS011;17871;31.584;74.450;2023-09-08T00:03:30;60.60;;;40.03;;
31238;SDS011;17871;31.584;74.450;2023-09-08T00:05:59;78.07;;;41.15;;
31238;SDS011;17871;31.584;74.450;2023-09-08T00:08:27;66.18;;;40.38;;
31238;SDS011;17871;31.584;74.450;2023-09-08T00:10:56;68.82;;;38.95;;
31238;SDS011;17871;31.584;74.450;2023-09-08T00:13:25;62.97;;;40.40;;
31238;SDS011;17871;31.584;74.450;2023-09-08T00:15:54;73.00;;;40.38;;
31238;SDS011;17871;31.584;74.450;2023-09-08T00:18:22;75.97;;;39.88;;
31238;SDS011;17871;31.584;74.450;2023-09-08T00:20:56;78.30;;;39.88;;
31238;SDS011;17871;31.584;74.450;2023-09-08T00:23:25;67.28;;;41.15;;
31238;SDS011;17871;31.584;74.450;2023-09-08T00:25:55;73.05;;;38.97;;
31238;SDS011;17871;31.584;74.450;2023-09-08T00:28:24;71.40;;;38.10;;
31238;SDS011;17871;31.584;74.450;2023-09-08T00:30:52;63.08;;;37.63;;
31238;SDS011;17871;31.584;74.450;2023-09-08T00:33:21;73.50;;;39.38;;
31238;SDS011;17871;31.584;74.450;2023-09-08T00:35:51;72.40;;;38.80;;
31238;SDS011;17871;31.584;74.450;2023-09-08T00:38:19;71.05;;;38.28;;
31238;SDS011;17871;31.584;74.450;2023-09-08T00:40:48;58.33;;;38.75;;
31238;SDS011;17871;31.584;74.450;2023-09-08T00:43:17;66.32;;;37.78;;
31238;SDS011;17871;31.584;74.450;2023-09-08T00:45:46;77.75;;;39.20;;
31238;SDS011;17871;31.584;74.450;2023-09-08T00:48:15;56.40;;;36.25;;
31238;SDS011;17871;31.584;74.450;2023-09-08T00:50:44;60.72;;;35.50;;
31238;SDS011;17871;31.584;74.450;2023-09-08T00:53:13;58.72;;;34.28;;
31238;SDS011;17871;31.584;74.450;2023-09-08T00:55:43;54.08;;;32.42;;
31238;SDS011;17871;31.584;74.450;2023-09-08T00:58:13;52.22;;;30.88;;
31238;SDS011;17871;31.584;74.450;2023-09-08T01:00:41;62.75;;;30.60;;
31238;SDS011;17871;31.584;74.450;2023-09-08T01:03:13;45.67;;;30.05;;
31238;SDS011;17871;31.584;74.450;2023-09-08T01:05:42;44.10;;;28.50;;
31238;SDS011;17871;31.584;74.450;2023-09-08T01:08:12;52.45;;;29.52;;
31238;SDS011;17871;31.584;74.450;2023-09-08T01:10:41;48.95;;;28.60;;
31238;SDS011;17871;31.584;74.450;2023-09-08T01:13:10;46.72;;;28.40;;
31238;SDS011;17871;31.584;74.450;2023-09-08T01:15:39;51.70;;;31.25;;
31238;SDS011;17871;31.584;74.450;2023-09-08T01:18:08;49.75;;;31.02;;
31238;SDS011;17871;31.584;74.450;2023-09-08T01:20:48;59.08;;;30.02;;
31238;SDS011;17871;31.584;74.450;2023-09-08T01:23:22;55.80;;;30.25;;
31238;SDS011;17871;31.584;74.450;2023-09-08T01:26:11;49.75;;;29.05;;
31238;SDS011;17871;31.584;74.450;2023-09-08T01:28:44;54.50;;;31.35;;
31238;SDS011;17871;31.584;74.450;2023-09-08T01:31:14;65.35;;;32.40;;
31238;SDS011;17871;31.584;74.450;2023-09-08T01:33:44;58.58;;;31.00;;
31238;SDS011;17871;31.584;74.450;2023-09-08T01:36:13;65.65;;;32.20;;
31238;SDS011;17871;31.584;74.450;2023-09-08T01:38:42;55.17;;;31.80;;
31238;SDS011;17871;31.584;74.450;2023-09-08T01:41:11;61.50;;;32.20;;
31238;SDS011;17871;31.584;74.450;2023-09-08T01:43:39;57.95;;;31.73;;
31238;SDS011;17871;31.584;74.450;2023-09-08T01:46:08;53.33;;;33.50;;
31238;SDS011;17871;31.584;74.450;2023-09-08T01:48:36;59.90;;;33.65;;
31238;SDS011;17871;31.584;74.450;2023-09-08T01:51:05;65.03;;;33.15;;
31238;SDS011;17871;31.584;74.450;2023-09-08T01:53:33;60.47;;;34.88;;
31238;SDS011;17871;31.584;74.450;2023-09-08T01:56:02;68.03;;;35.03;;
31238;SDS011;17871;31.584;74.450;2023-09-08T01:58:31;58.58;;;32.85;;
31238;SDS011;17871;31.584;74.450;2023-09-08T02:01:02;72.47;;;36.70;;
31238;SDS011;17871;31.584;74.450;2023-09-08T02:03:34;62.58;;;36.00;;
31238;SDS011;17871;31.584;74.450;2023-09-08T02:06:03;57.58;;;34.70;;
31238;SDS011;17871;31.584;74.450;2023-09-08T02:08:31;70.20;;;35.55;;
31238;SDS011;17871;31.584;74.450;2023-09-08T02:11:00;71.93;;;37.20;;
31238;SDS011;17871;31.584;74.450;2023-09-08T02:13:29;62.45;;;34.28;;
31238;SDS011;17871;31.584;74.450;2023-09-08T02:15:57;53.08;;;31.80;;
31238;SDS011;17871;31.584;74.450;2023-09-08T02:18:26;54.63;;;31.42;;
31238;SDS011;17871;31.584;74.450;2023-09-08T02:20:56;58.65;;;31.90;;
31238;SDS011;17871;31.584;74.450;2023-09-08T02:23:25;53.88;;;31.90;;
31238;SDS011;17871;31.584;74.450;2023-09-08T02:25:53;58.20;;;30.98;;
31238;SDS011;17871;31.584;74.450;2023-09-08T02:28:22;59.90;;;34.30;;
31238;SDS011;17871;31.584;74.450;2023-09-08T02:30:52;58.17;;;31.55;;
31238;SDS011;17871;31.584;74.450;2023-09-08T02:33:20;56.67;;;30.60;;
31238;SDS011;17871;31.584;74.450;2023-09-08T02:35:50;60.38;;;33.83;;
31238;SDS011;17871;31.584;74.450;2023-09-08T02:38:19;72.78;;;30.85;;
31238;SDS011;17871;31.584;74.450;2023-09-08T02:40:48;75.13;;;31.75;;
31238;SDS011;17871;31.584;74.450;2023-09-08T02:43:16;56.20;;;30.98;;
31238;SDS011;17871;31.584;74.450;2023-09-08T02:45:46;62.70;;;30.40;;
31238;SDS011;17871;31.584;74.450;2023-09-08T02:48:17;61.20;;;31.63;;
31238;SDS011;17871;31.584;74.450;2023-09-08T02:51:03;59.25;;;29.83;;
31238;SDS011;17871;31.584;74.450;2023-09-08T02:53:31;62.42;;;32.53;;
31238;SDS011;17871;31.584;74.450;2023-09-08T02:56:02;57.45;;;30.48;;
31238;SDS011;17871;31.584;74.450;2023-09-08T02:58:33;58.28;;;33.05;;
31238;SDS011;17871;31.584;74.450;2023-09-08T03:01:12;60.08;;;30.60;;
31238;SDS011;17871;31.584;74.450;2023-09-08T03:03:42;66.80;;;33.83;;
31238;SDS011;17871;31.584;74.450;2023-09-08T03:06:14;57.47;;;29.48;;
31238;SDS011;17871;31.584;74.450;2023-09-08T03:08:44;58.95;;;30.73;;
31238;SDS011;17871;31.584;74.450;2023-09-08T03:11:12;64.38;;;29.13;;
31238;SDS011;17871;31.584;74.450;2023-09-08T03:13:41;59.45;;;29.27;;
31238;SDS011;17871;31.584;74.450;2023-09-08T03:16:09;68.22;;;29.33;;
31238;SDS011;17871;31.584;74.450;2023-09-08T03:18:39;42.05;;;24.77;;
31238;SDS011;17871;31.584;74.450;2023-09-08T03:21:07;64.07;;;23.88;;
31238;SDS011;17871;31.584;74.450;2023-09-08T03:23:39;48.38;;;24.77;;
31238;SDS011;17871;31.584;74.450;2023-09-08T03:26:09;44.63;;;25.30;;
31238;SDS011;17871;31.584;74.450;2023-09-08T03:28:38;50.35;;;25.35;;
31238;SDS011;17871;31.584;74.450;2023-09-08T03:31:07;244.32;;;37.60;;
31238;SDS011;17871;31.584;74.450;2023-09-08T03:33:36;73.97;;;27.50;;
31238;SDS011;17871;31.584;74.450;2023-09-08T03:36:07;42.40;;;24.20;;
31238;SDS011;17871;31.584;74.450;2023-09-08T03:38:36;47.25;;;24.38;;
31238;SDS011;17871;31.584;74.450;2023-09-08T03:41:06;53.13;;;23.55;;
31238;SDS011;17871;31.584;74.450;2023-09-08T03:43:34;49.55;;;21.65;;
31238;SDS011;17871;31.584;74.450;2023-09-08T03:46:03;54.72;;;21.77;;
31238;SDS011;17871;31.584;74.450;2023-09-08T03:48:32;43.38;;;21.77;;
31238;SDS011;17871;31.584;74.450;2023-09-08T03:51:01;46.97;;;20.27;;
31238;SDS011;17871;31.584;74.450;2023-09-08T03:53:46;41.65;;;20.75;;
31238;SDS011;17871;31.584;74.450;2023-09-08T03:56:15;51.70;;;23.38;;
31238;SDS011;17871;31.584;74.450;2023-09-08T03:58:44;47.28;;;21.08;;
31238;SDS011;17871;31.584;74.450;2023-09-08T04:01:12;41.97;;;18.92;;
31238;SDS011;17871;31.584;74.450;2023-09-08T04:03:41;33.03;;;18.55;;
31238;SDS011;17871;31.584;74.450;2023-09-08T04:06:10;34.03;;;18.38;;
31238;SDS011;17871;31.584;74.450;2023-09-08T04:08:39;42.15;;;17.52;;
31238;SDS011;17871;31.584;74.450;2023-09-08T04:11:07;44.35;;;17.63;;
31238;SDS011;17871;31.584;74.450;2023-09-08T04:13:36;39.78;;;17.85;;
31238;SDS011;17871;31.584;74.450;2023-09-08T04:16:05;38.65;;;16.90;;
31238;SDS011;17871;31.584;74.450;2023-09-08T04:18:34;31.77;;;16.08;;
31238;SDS011;17871;31.584;74.450;2023-09-08T04:21:02;33.88;;;16.27;;
31238;SDS011;17871;31.584;74.450;2023-09-08T04:23:31;38.50;;;17.55;;
31238;SDS011;17871;31.584;74.450;2023-09-08T04:26:00;45.35;;;17.50;;
31238;SDS011;17871;31.584;74.450;2023-09-08T04:28:29;44.05;;;17.05;;
31238;SDS011;17871;31.584;74.450;2023-09-08T04:30:57;35.40;;;15.40;;
31238;SDS011;17871;31.584;74.450;2023-09-08T04:33:27;37.15;;;14.77;;
31238;SDS011;17871;31.584;74.450;2023-09-08T04:35:58;40.60;;;15.10;;
31238;SDS011;17871;31.584;74.450;2023-09-08T04:38:26;25.95;;;15.63;;
31238;SDS011;17871;31.584;74.450;2023-09-08T04:40:55;43.97;;;16.35;;
31238;SDS011;17871;31.584;74.450;2023-09-08T04:43:24;36.88;;;16.77;;
31238;SDS011;17871;31.584;74.450;2023-09-08T04:45:53;31.90;;;16.35;;
31238;SDS011;17871;31.584;74.450;2023-09-08T04:48:38;37.72;;;16.45;;
31238;SDS011;17871;31.584;74.450;2023-09-08T04:51:07;39.30;;;16.80;;
31238;SDS011;17871;31.584;74.450;2023-09-08T04:53:36;33.17;;;16.73;;
31238;SDS011;17871;31.584;74.450;2023-09-08T04:56:05;29.90;;;16.65;;
31238;SDS011;17871;31.584;74.450;2023-09-08T04:58:33;36.90;;;16.88;;
31238;SDS011;17871;31.584;74.450;2023-09-08T05:01:02;36.28;;;17.08;;
31238;SDS011;17871;31.584;74.450;2023-09-08T05:03:33;40.47;;;16.73;;
31238;SDS011;17871;31.584;74.450;2023-09-08T05:06:04;36.03;;;17.60;;
31238;SDS011;17871;31.584;74.450;2023-09-08T05:08:32;38.67;;;20.13;;
31238;SDS011;17871;31.584;74.450;2023-09-08T05:11:02;58.45;;;36.20;;
31238;SDS011;17871;31.584;74.450;2023-09-08T05:13:31;49.90;;;32.50;;
31238;SDS011;17871;31.584;74.450;2023-09-08T05:18:44;40.58;;;15.85;;
31238;SDS011;17871;31.584;74.450;2023-09-08T05:21:13;38.00;;;17.40;;
31238;SDS011;17871;31.584;74.450;2023-09-08T05:23:42;44.97;;;14.55;;
31238;SDS011;17871;31.584;74.450;2023-09-08T05:26:12;32.53;;;16.65;;
31238;SDS011;17871;31.584;74.450;2023-09-08T05:28:40;28.73;;;16.33;;
31238;SDS011;17871;31.584;74.450;2023-09-08T05:31:11;33.70;;;16.35;;
31238;SDS011;17871;31.584;74.450;2023-09-08T05:33:40;39.63;;;16.45;;
31238;SDS011;17871;31.584;74.450;2023-09-08T05:36:09;32.00;;;14.48;;
31238;SDS011;17871;31.584;74.450;2023-09-08T05:38:43;31.20;;;13.98;;
31238;SDS011;17871;31.584;74.450;2023-09-08T05:41:11;42.58;;;15.27;;
31238;SDS011;17871;31.584;74.450;2023-09-08T05:43:40;24.33;;;14.10;;
31238;SDS011;17871;31.584;74.450;2023-09-08T05:46:12;26.55;;;14.50;;
31238;SDS011;17871;31.584;74.450;2023-09-08T05:48:42;26.42;;;14.65;;
31238;SDS011;17871;31.584;74.450;2023-09-08T05:51:10;29.65;;;15.30;;
31238;SDS011;17871;31.584;74.450;2023-09-08T05:53:39;50.20;;;17.15;;
31238;SDS011;17871;31.584;74.450;2023-09-08T05:56:09;41.55;;;15.57;;
31238;SDS011;17871;31.584;74.450;2023-09-08T05:58:40;32.63;;;15.23;;
31238;SDS011;17871;31.584;74.450;2023-09-08T06:01:10;34.47;;;15.35;;
31238;SDS011;17871;31.584;74.450;2023-09-08T06:03:38;35.40;;;17.60;;
31238;SDS011;17871;31.584;74.450;2023-09-08T06:06:07;40.42;;;15.73;;
31238;SDS011;17871;31.584;74.450;2023-09-08T06:08:36;32.92;;;14.15;;
31238;SDS011;17871;31.584;74.450;2023-09-08T06:11:05;30.80;;;14.65;;
31238;SDS011;17871;31.584;74.450;2023-09-08T06:13:46;191.70;;;24.80;;
31238;SDS011;17871;31.584;74.450;2023-09-08T06:16:18;36.65;;;17.45;;
31238;SDS011;17871;31.584;74.450;2023-09-08T06:18:47;31.48;;;15.40;;
31238;SDS011;17871;31.584;74.450;2023-09-08T06:21:18;35.33;;;14.48;;
31238;SDS011;17871;31.584;74.450;2023-09-08T06:23:47;34.80;;;16.60;;
31238;SDS011;17871;31.584;74.450;2023-09-08T06:26:17;38.63;;;16.42;;
31238;SDS011;17871;31.584;74.450;2023-09-08T06:28:46;39.97;;;16.05;;
31238;SDS011;17871;31.584;74.450;2023-09-08T06:31:14;42.35;;;15.95;;
31238;SDS011;17871;31.584;74.450;2023-09-08T06:33:44;40.28;;;16.88;;
31238;SDS011;17871;31.584;74.450;2023-09-08T06:36:21;43.35;;;16.00;;
31238;SDS011;17871;31.584;74.450;2023-09-08T06:38:52;40.33;;;16.20;;
31238;SDS011;17871;31.584;74.450;2023-09-08T06:41:20;32.72;;;15.05;;
31238;SDS011;17871;31.584;74.450;2023-09-08T06:43:53;32.60;;;15.13;;
31238;SDS011;17871;31.584;74.450;2023-09-08T06:46:22;37.47;;;15.25;;
31238;SDS011;17871;31.584;74.450;2023-09-08T06:48:54;44.25;;;15.40;;
31238;SDS011;17871;31.584;74.450;2023-09-08T06:51:23;46.40;;;14.40;;
31238;SDS011;17871;31.584;74.450;2023-09-08T06:53:56;42.63;;;16.85;;
31238;SDS011;17871;31.584;74.450;2023-09-08T06:56:31;33.40;;;15.13;;
31238;SDS011;17871;31.584;74.450;2023-09-08T06:59:00;35.15;;;14.88;;
31238;SDS011;17871;31.584;74.450;2023-09-08T07:01:29;28.20;;;15.00;;
31238;SDS011;17871;31.584;74.450;2023-09-08T07:04:10;37.53;;;15.70;;
31238;SDS011;17871;31.584;74.450;2023-09-08T07:06:39;45.55;;;19.25;;
31238;SDS011;17871;31.584;74.450;2023-09-08T07:09:24;38.40;;;22.13;;
31238;SDS011;17871;31.584;74.450;2023-09-08T07:11:52;48.25;;;20.98;;
31238;SDS011;17871;31.584;74.450;2023-09-08T07:14:21;34.75;;;18.58;;
31238;SDS011;17871;31.584;74.450;2023-09-08T07:16:51;42.70;;;18.63;;
31238;SDS011;17871;31.584;74.450;2023-09-08T07:19:20;40.28;;;16.75;;
31238;SDS011;17871;31.584;74.450;2023-09-08T07:21:48;34.22;;;15.82;;
31238;SDS011;17871;31.584;74.450;2023-09-08T07:24:17;40.58;;;17.67;;
31238;SDS011;17871;31.584;74.450;2023-09-08T07:26:46;56.35;;;18.80;;
31238;SDS011;17871;31.584;74.450;2023-09-08T07:29:15;35.58;;;16.85;;
31238;SDS011;17871;31.584;74.450;2023-09-08T07:31:44;48.83;;;18.33;;
31238;SDS011;17871;31.584;74.450;2023-09-08T07:34:13;37.90;;;17.83;;
31238;SDS011;17871;31.584;74.450;2023-09-08T07:36:42;46.35;;;17.40;;
31238;SDS011;17871;31.584;74.450;2023-09-08T07:39:11;42.78;;;16.30;;
31238;SDS011;17871;31.584;74.450;2023-09-08T07:41:39;37.42;;;16.33;;
31238;SDS011;17871;31.584;74.450;2023-09-08T07:44:09;33.17;;;16.58;;
31238;SDS011;17871;31.584;74.450;2023-09-08T07:46:38;29.17;;;15.80;;
31238;SDS011;17871;31.584;74.450;2023-09-08T07:49:07;29.75;;;15.38;;
31238;SDS011;17871;31.584;74.450;2023-09-08T07:51:36;42.42;;;16.85;;
31238;SDS011;17871;31.584;74.450;2023-09-08T07:54:05;28.80;;;15.50;;
31238;SDS011;17871;31.584;74.450;2023-09-08T07:56:34;36.50;;;15.93;;
31238;SDS011;17871;31.584;74.450;2023-09-08T07:59:03;30.27;;;15.35;;
31238;SDS011;17871;31.584;74.450;2023-09-08T08:01:34;44.20;;;16.48;;
31238;SDS011;17871;31.584;74.450;2023-09-08T08:04:02;40.28;;;17.35;;
31238;SDS011;17871;31.584;74.450;2023-09-08T08:06:34;44.33;;;16.90;;
31238;SDS011;17871;31.584;74.450;2023-09-08T08:09:03;38.65;;;16.23;;
31238;SDS011;17871;31.584;74.450;2023-09-08T08:11:32;35.00;;;15.60;;
31238;SDS011;17871;31.584;74.450;2023-09-08T08:14:09;27.83;;;15.30;;
31238;SDS011;17871;31.584;74.450;2023-09-08T08:16:38;50.20;;;16.98;;
31238;SDS011;17871;31.584;74.450;2023-09-08T08:19:07;30.20;;;16.27;;
31238;SDS011;17871;31.584;74.450;2023-09-08T08:21:35;37.08;;;16.00;;
31238;SDS011;17871;31.584;74.450;2023-09-08T08:24:05;26.63;;;15.13;;
31238;SDS011;17871;31.584;74.450;2023-09-08T08:26:34;31.13;;;16.30;;
31238;SDS011;17871;31.584;74.450;2023-09-08T08:29:05;37.80;;;15.57;;
31238;SDS011;17871;31.584;74.450;2023-09-08T08:31:34;37.78;;;16.60;;
31238;SDS011;17871;31.584;74.450;2023-09-08T08:34:02;36.30;;;15.80;;
31238;SDS011;17871;31.584;74.450;2023-09-08T08:36:31;33.17;;;15.52;;
31238;SDS011;17871;31.584;74.450;2023-09-08T08:39:00;36.00;;;16.77;;
31238;SDS011;17871;31.584;74.450;2023-09-08T08:41:28;34.85;;;18.63;;
31238;SDS011;17871;31.584;74.450;2023-09-08T08:43:57;26.70;;;17.85;;
31238;SDS011;17871;31.584;74.450;2023-09-08T08:46:26;41.05;;;19.02;;
31238;SDS011;17871;31.584;74.450;2023-09-08T08:48:55;41.28;;;21.58;;
31238;SDS011;17871;31.584;74.450;2023-09-08T08:51:24;36.35;;;20.98;;
31238;SDS011;17871;31.584;74.450;2023-09-08T08:53:54;46.03;;;21.35;;
31238;SDS011;17871;31.584;74.450;2023-09-08T08:56:23;41.15;;;20.13;;
31238;SDS011;17871;31.584;74.450;2023-09-08T08:58:52;37.30;;;18.52;;
31238;SDS011;17871;31.584;74.450;2023-09-08T09:01:24;40.67;;;19.52;;
31238;SDS011;17871;31.584;74.450;2023-09-08T09:03:54;31.08;;;18.40;;
31238;SDS011;17871;31.584;74.450;2023-09-08T09:06:24;36.10;;;18.52;;
31238;SDS011;17871;31.584;74.450;2023-09-08T09:08:52;31.65;;;18.27;;
31238;SDS011;17871;31.584;74.450;2023-09-08T09:11:21;45.72;;;19.42;;
31238;SDS011;17871;31.584;74.450;2023-09-08T09:13:50;40.28;;;20.58;;
31238;SDS011;17871;31.584;74.450;2023-09-08T09:16:18;41.53;;;17.40;;
31238;SDS011;17871;31.584;74.450;2023-09-08T09:18:58;37.10;;;20.23;;
31238;SDS011;17871;31.584;74.450;2023-09-08T09:21:43;33.92;;;17.60;;
31238;SDS011;17871;31.584;74.450;2023-09-08T09:24:27;43.45;;;17.65;;
31238;SDS011;17871;31.584;74.450;2023-09-08T09:26:57;39.53;;;17.63;;
31238;SDS011;17871;31.584;74.450;2023-09-08T09:29:26;41.70;;;18.65;;
31238;SDS011;17871;31.584;74.450;2023-09-08T09:32:13;38.90;;;18.88;;
31238;SDS011;17871;31.584;74.450;2023-09-08T09:35:00;41.63;;;19.92;;
31238;SDS011;17871;31.584;74.450;2023-09-08T09:37:29;46.65;;;21.30;;
31238;SDS011;17871;31.584;74.450;2023-09-08T09:39:59;34.60;;;17.95;;
31238;SDS011;17871;31.584;74.450;2023-09-08T09:42:28;40.90;;;18.67;;
31238;SDS011;17871;31.584;74.450;2023-09-08T09:44:57;39.70;;;19.48;;
31238;SDS011;17871;31.584;74.450;2023-09-08T09:47:29;41.67;;;18.42;;
31238;SDS011;17871;31.584;74.450;2023-09-08T09:49:58;57.70;;;23.75;;
31238;SDS011;17871;31.584;74.450;2023-09-08T09:52:29;34.38;;;17.80;;
31238;SDS011;17871;31.584;74.450;2023-09-08T09:55:03;43.65;;;19.95;;
31238;SDS011;17871;31.584;74.450;2023-09-08T09:57:43;42.63;;;24.53;;
31238;SDS011;17871;31.584;74.450;2023-09-08T10:00:13;38.13;;;18.95;;
31238;SDS011;17871;31.584;74.450;2023-09-08T10:02:43;39.28;;;18.45;;
31238;SDS011;17871;31.584;74.450;2023-09-08T10:05:12;48.17;;;23.58;;
31238;SDS011;17871;31.584;74.450;2023-09-08T10:07:50;49.53;;;19.30;;
31238;SDS011;17871;31.584;74.450;2023-09-08T10:10:20;29.13;;;20.13;;
31238;SDS011;17871;31.584;74.450;2023-09-08T10:12:51;34.08;;;18.55;;
31238;SDS011;17871;31.584;74.450;2023-09-08T10:15:21;35.45;;;16.63;;
31238;SDS011;17871;31.584;74.450;2023-09-08T10:17:54;48.20;;;21.90;;
31238;SDS011;17871;31.584;74.450;2023-09-08T10:20:34;51.65;;;17.30;;
31238;SDS011;17871;31.584;74.450;2023-09-08T10:25:54;110.70;;;20.15;;
31238;SDS011;17871;31.584;74.450;2023-09-08T10:28:27;82.10;;;18.58;;
31238;SDS011;17871;31.584;74.450;2023-09-08T10:30:56;39.80;;;18.35;;
31238;SDS011;17871;31.584;74.450;2023-09-08T10:33:26;33.00;;;16.60;;
31238;SDS011;17871;31.584;74.450;2023-09-08T10:35:55;39.13;;;16.55;;
31238;SDS011;17871;31.584;74.450;2023-09-08T10:38:29;36.35;;;17.00;;
31238;SDS011;17871;31.584;74.450;2023-09-08T10:43:56;37.90;;;15.48;;
31238;SDS011;17871;31.584;74.450;2023-09-08T10:46:28;40.15;;;19.35;;
31238;SDS011;17871;31.584;74.450;2023-09-08T10:49:06;31.17;;;16.88;;
31238;SDS011;17871;31.584;74.450;2023-09-08T10:51:35;41.42;;;22.15;;
31238;SDS011;17871;31.584;74.450;2023-09-08T10:54:05;40.50;;;16.27;;
31238;SDS011;17871;31.584;74.450;2023-09-08T10:59:22;43.65;;;27.75;;
31238;SDS011;17871;31.584;74.450;2023-09-08T11:01:50;50.97;;;18.67;;
31238;SDS011;17871;31.584;74.450;2023-09-08T11:04:23;42.38;;;18.42;;
31238;SDS011;17871;31.584;74.450;2023-09-08T11:06:52;28.73;;;16.17;;
31238;SDS011;17871;31.584;74.450;2023-09-08T11:09:21;40.92;;;17.40;;
31238;SDS011;17871;31.584;74.450;2023-09-08T11:11:51;38.15;;;20.10;;
31238;SDS011;17871;31.584;74.450;2023-09-08T11:14:20;34.63;;;21.65;;
31238;SDS011;17871;31.584;74.450;2023-09-08T11:16:49;72.05;;;41.78;;
31238;SDS011;17871;31.584;74.450;2023-09-08T11:19:17;48.97;;;20.40;;
31238;SDS011;17871;31.584;74.450;2023-09-08T11:21:46;42.72;;;18.48;;
31238;SDS011;17871;31.584;74.450;2023-09-08T11:24:30;42.30;;;17.83;;
31238;SDS011;17871;31.584;74.450;2023-09-08T11:26:59;80.80;;;42.00;;
31238;SDS011;17871;31.584;74.450;2023-09-08T11:29:28;41.53;;;19.33;;
31238;SDS011;17871;31.584;74.450;2023-09-08T11:31:56;81.78;;;41.60;;
31238;SDS011;17871;31.584;74.450;2023-09-08T11:34:25;47.22;;;23.55;;
31238;SDS011;17871;31.584;74.450;2023-09-08T11:36:53;37.47;;;18.80;;
31238;SDS011;17871;31.584;74.450;2023-09-08T11:39:25;58.50;;;19.10;;
31238;SDS011;17871;31.584;74.450;2023-09-08T11:41:54;49.88;;;22.02;;
31238;SDS011;17871;31.584;74.450;2023-09-08T11:44:22;45.08;;;19.73;;
31238;SDS011;17871;31.584;74.450;2023-09-08T11:46:52;34.63;;;17.92;;
31238;SDS011;17871;31.584;74.450;2023-09-08T11:49:21;33.00;;;16.80;;
31238;SDS011;17871;31.584;74.450;2023-09-08T11:51:54;39.80;;;21.75;;
31238;SDS011;17871;31.584;74.450;2023-09-08T11:54:32;29.48;;;17.02;;
31238;SDS011;17871;31.584;74.450;2023-09-08T11:57:02;37.28;;;18.98;;
31238;SDS011;17871;31.584;74.450;2023-09-08T11:59:32;29.38;;;18.20;;
31238;SDS011;17871;31.584;74.450;2023-09-08T12:02:01;40.00;;;17.67;;
31238;SDS011;17871;31.584;74.450;2023-09-08T12:04:30;43.83;;;18.73;;
31238;SDS011;17871;31.584;74.450;2023-09-08T12:06:58;52.28;;;18.65;;
31238;SDS011;17871;31.584;74.450;2023-09-08T12:09:28;46.58;;;19.60;;
31238;SDS011;17871;31.584;74.450;2023-09-08T12:12:00;35.55;;;18.98;;
31238;SDS011;17871;31.584;74.450;2023-09-08T12:14:39;37.90;;;19.85;;
31238;SDS011;17871;31.584;74.450;2023-09-08T12:17:08;38.92;;;20.58;;
31238;SDS011;17871;31.584;74.450;2023-09-08T12:19:37;39.35;;;21.35;;
31238;SDS011;17871;31.584;74.450;2023-09-08T12:22:06;41.30;;;23.98;;
31238;SDS011;17871;31.584;74.450;2023-09-08T12:27:27;40.50;;;20.85;;
31238;SDS011;17871;31.584;74.450;2023-09-08T12:29:57;35.35;;;20.58;;
31238;SDS011;17871;31.584;74.450;2023-09-08T12:32:28;33.85;;;20.23;;
31238;SDS011;17871;31.584;74.450;2023-09-08T12:34:57;46.67;;;21.63;;
31238;SDS011;17871;31.584;74.450;2023-09-08T12:37:26;45.50;;;21.40;;
31238;SDS011;17871;31.584;74.450;2023-09-08T12:39:58;40.35;;;19.77;;
31238;SDS011;17871;31.584;74.450;2023-09-08T12:42:29;44.28;;;21.30;;
31238;SDS011;17871;31.584;74.450;2023-09-08T12:45:11;37.03;;;21.77;;
31238;SDS011;17871;31.584;74.450;2023-09-08T12:47:40;32.08;;;19.55;;
31238;SDS011;17871;31.584;74.450;2023-09-08T12:50:09;35.72;;;19.35;;
31238;SDS011;17871;31.584;74.450;2023-09-08T12:52:38;44.13;;;19.98;;
31238;SDS011;17871;31.584;74.450;2023-09-08T12:55:07;57.33;;;22.20;;
31238;SDS011;17871;31.584;74.450;2023-09-08T12:57:36;74.95;;;25.35;;
31238;SDS011;17871;31.584;74.450;2023-09-08T13:00:05;50.35;;;22.73;;
31238;SDS011;17871;31.584;74.450;2023-09-08T13:02:34;44.40;;;21.40;;
31238;SDS011;17871;31.584;74.450;2023-09-08T13:05:02;43.97;;;23.00;;
31238;SDS011;17871;31.584;74.450;2023-09-08T13:07:31;55.47;;;22.25;;
31238;SDS011;17871;31.584;74.450;2023-09-08T13:10:00;37.42;;;20.40;;
31238;SDS011;17871;31.584;74.450;2023-09-08T13:12:29;58.63;;;23.05;;
31238;SDS011;17871;31.584;74.450;2023-09-08T13:14:59;49.13;;;27.27;;
31238;SDS011;17871;31.584;74.450;2023-09-08T13:17:28;42.50;;;21.08;;
31238;SDS011;17871;31.584;74.450;2023-09-08T13:19:56;51.40;;;22.27;;
31238;SDS011;17871;31.584;74.450;2023-09-08T13:22:25;48.63;;;21.52;;
31238;SDS011;17871;31.584;74.450;2023-09-08T13:24:54;39.83;;;21.52;;
31238;SDS011;17871;31.584;74.450;2023-09-08T13:27:23;46.85;;;24.27;;
31238;SDS011;17871;31.584;74.450;2023-09-08T13:30:06;60.72;;;26.52;;
31238;SDS011;17871;31.584;74.450;2023-09-08T13:32:36;61.92;;;29.02;;
31238;SDS011;17871;31.584;74.450;2023-09-08T13:35:05;59.35;;;27.27;;
31238;SDS011;17871;31.584;74.450;2023-09-08T13:37:37;49.17;;;25.63;;
31238;SDS011;17871;31.584;74.450;2023-09-08T13:40:08;55.95;;;26.50;;
31238;SDS011;17871;31.584;74.450;2023-09-08T13:42:37;52.45;;;25.27;;
31238;SDS011;17871;31.584;74.450;2023-09-08T13:45:05;45.40;;;23.95;;
31238;SDS011;17871;31.584;74.450;2023-09-08T13:47:34;41.33;;;23.73;;
31238;SDS011;17871;31.584;74.450;2023-09-08T13:50:05;42.13;;;22.52;;
31238;SDS011;17871;31.584;74.450;2023-09-08T13:52:36;55.53;;;22.98;;
31238;SDS011;17871;31.584;74.450;2023-09-08T13:55:10;43.42;;;24.80;;
31238;SDS011;17871;31.584;74.450;2023-09-08T13:57:58;63.67;;;29.33;;
31238;SDS011;17871;31.584;74.450;2023-09-08T14:00:28;53.33;;;27.63;;
31238;SDS011;17871;31.584;74.450;2023-09-08T14:02:58;45.22;;;24.38;;
31238;SDS011;17871;31.584;74.450;2023-09-08T14:05:33;57.22;;;24.70;;
31238;SDS011;17871;31.584;74.450;2023-09-08T14:08:05;53.63;;;24.77;;
31238;SDS011;17871;31.584;74.450;2023-09-08T14:10:44;44.10;;;22.98;;
31238;SDS011;17871;31.584;74.450;2023-09-08T14:13:16;54.08;;;21.50;;
31238;SDS011;17871;31.584;74.450;2023-09-08T14:15:45;65.22;;;21.98;;
31238;SDS011;17871;31.584;74.450;2023-09-08T14:18:13;45.42;;;22.20;;
31238;SDS011;17871;31.584;74.450;2023-09-08T14:20:42;41.33;;;21.75;;
31238;SDS011;17871;31.584;74.450;2023-09-08T14:23:16;58.38;;;22.95;;
31238;SDS011;17871;31.584;74.450;2023-09-08T14:25:45;41.63;;;19.70;;
31238;SDS011;17871;31.584;74.450;2023-09-08T14:28:14;43.72;;;21.60;;
31238;SDS011;17871;31.584;74.450;2023-09-08T14:30:45;45.67;;;20.92;;
31238;SDS011;17871;31.584;74.450;2023-09-08T14:33:13;38.75;;;19.50;;
31238;SDS011;17871;31.584;74.450;2023-09-08T14:35:42;42.70;;;19.95;;
31238;SDS011;17871;31.584;74.450;2023-09-08T14:38:19;31.33;;;19.48;;
31238;SDS011;17871;31.584;74.450;2023-09-08T14:41:00;44.65;;;21.75;;